EWG82U LGAV-EDDL
Flight info
| Callsign | EWG82U |
|---|---|
| Flight time | 2h 59m |
| Altitude | 34000 |
| Route | KOR UL53 IPTES DCT DIMIS DCT ADDER DCT ELBAK DCT INLOT DCT RETRA DCT PETOV DCT LAMSI L604 RODIS DCT TESDU DCT AMETU T852 TINSA T854 DOMUX DOMUX1A |
| Aircraft | A321/M-SDE2E3FGIJ1LORWXY/HB1 |
Departure
| Time | 2026-05-05 11:00 |
|---|---|
| Airport | Athens Eleftherios Venizelos International Airport (LGAV) |
Arrival
| Time | 2026-05-05 14:00 |
|---|---|
| Airport | Düsseldorf Airport (EDDL) |
| Time | Latitude | Longitude | Altitude | Speed | Heading |
|---|---|---|---|---|---|
| 2026-05-05 10:48 | 37.93044 | 23.94273 | 282 ft | 0 kts | 38° |
| 2026-05-05 10:50 | 37.93037 | 23.94266 | 284 ft | 3 kts | 40° |
| 2026-05-05 10:50 | 37.93022 | 23.94249 | 286 ft | 3 kts | 44° |
| 2026-05-05 10:50 | 37.93008 | 23.94230 | 287 ft | 3 kts | 51° |
| 2026-05-05 10:51 | 37.92996 | 23.94210 | 291 ft | 3 kts | 64° |
| 2026-05-05 10:51 | 37.92990 | 23.94188 | 285 ft | 3 kts | 94° |
| 2026-05-05 10:51 | 37.92992 | 23.94173 | 288 ft | 1 kts | 127° |
| 2026-05-05 10:51 | 37.92993 | 23.94172 | 288 ft | 0 kts | 127° |
| 2026-05-05 10:54 | 37.92991 | 23.94174 | 281 ft | 2 kts | 126° |
| 2026-05-05 10:54 | 37.92970 | 23.94209 | 284 ft | 8 kts | 127° |
| 2026-05-05 10:54 | 37.92926 | 23.94283 | 282 ft | 11 kts | 129° |
| 2026-05-05 10:54 | 37.92878 | 23.94364 | 282 ft | 12 kts | 127° |
| 2026-05-05 10:55 | 37.92826 | 23.94445 | 282 ft | 9 kts | 140° |
| 2026-05-05 10:55 | 37.92769 | 23.94440 | 281 ft | 9 kts | 215° |
| 2026-05-05 10:55 | 37.92711 | 23.94387 | 283 ft | 11 kts | 218° |
| 2026-05-05 10:55 | 37.92651 | 23.94329 | 282 ft | 11 kts | 217° |
| 2026-05-05 10:56 | 37.92589 | 23.94270 | 279 ft | 9 kts | 218° |
| 2026-05-05 10:56 | 37.92548 | 23.94230 | 284 ft | 5 kts | 217° |
| 2026-05-05 10:56 | 37.92517 | 23.94201 | 282 ft | 7 kts | 217° |
| 2026-05-05 10:56 | 37.92475 | 23.94161 | 278 ft | 8 kts | 217° |
| 2026-05-05 10:57 | 37.92433 | 23.94165 | 281 ft | 6 kts | 135° |
| 2026-05-05 10:57 | 37.92429 | 23.94170 | 280 ft | 1 kts | 135° |
| 2026-05-05 10:57 | 37.92419 | 23.94188 | 277 ft | 3 kts | 117° |
| 2026-05-05 10:57 | 37.92413 | 23.94220 | 277 ft | 4 kts | 97° |
| 2026-05-05 10:58 | 37.92413 | 23.94224 | 277 ft | 0 kts | 95° |
| 2026-05-05 10:58 | 37.92412 | 23.94227 | 277 ft | 2 kts | 95° |
| 2026-05-05 10:58 | 37.92411 | 23.94266 | 277 ft | 7 kts | 90° |
| 2026-05-05 10:58 | 37.92414 | 23.94343 | 277 ft | 9 kts | 87° |
| 2026-05-05 10:59 | 37.92430 | 23.94400 | 280 ft | 6 kts | 48° |
| 2026-05-05 10:59 | 37.92436 | 23.94407 | 278 ft | 0 kts | 39° |
| 2026-05-05 10:59 | 37.92446 | 23.94416 | 279 ft | 8 kts | 39° |
| 2026-05-05 10:59 | 37.92686 | 23.94645 | 281 ft | 78 kts | 37° |
| 2026-05-05 11:00 | 37.93295 | 23.95221 | 292 ft | 137 kts | 37° |
| 2026-05-05 11:00 | 37.94179 | 23.96056 | 312 ft | 181 kts | 39° |
| 2026-05-05 11:00 | 37.95173 | 23.96982 | 1014 ft | 173 kts | 37° |
| 2026-05-05 11:00 | 37.96140 | 23.97908 | 1698 ft | 175 kts | 35° |
| 2026-05-05 11:01 | 37.97130 | 23.98872 | 2255 ft | 187 kts | 34° |
| 2026-05-05 11:01 | 37.98221 | 23.99924 | 2688 ft | 205 kts | 35° |
| 2026-05-05 11:01 | 37.99393 | 24.01053 | 3187 ft | 219 kts | 36° |
| 2026-05-05 11:01 | 38.00660 | 24.02278 | 3515 ft | 239 kts | 36° |
| 2026-05-05 11:02 | 38.02042 | 24.03611 | 3938 ft | 251 kts | 35° |
| 2026-05-05 11:02 | 38.03429 | 24.04942 | 4771 ft | 248 kts | 34° |
| 2026-05-05 11:02 | 38.04788 | 24.06257 | 5496 ft | 249 kts | 35° |
| 2026-05-05 11:02 | 38.06296 | 24.07407 | 5949 ft | 259 kts | 16° |
| 2026-05-05 11:03 | 38.08095 | 24.07611 | 6515 ft | 263 kts | 349° |
| 2026-05-05 11:03 | 38.09782 | 24.06725 | 7121 ft | 267 kts | 323° |
| 2026-05-05 11:03 | 38.10964 | 24.04906 | 7724 ft | 273 kts | 296° |
| 2026-05-05 11:03 | 38.11323 | 24.02529 | 8337 ft | 280 kts | 269° |
| 2026-05-05 11:04 | 38.11207 | 24.00049 | 9003 ft | 282 kts | 269° |
| 2026-05-05 11:04 | 38.11103 | 23.97538 | 9624 ft | 286 kts | 269° |
| 2026-05-05 11:04 | 38.11008 | 23.94999 | 10244 ft | 290 kts | 270° |
| 2026-05-05 11:04 | 38.10922 | 23.92359 | 10446 ft | 309 kts | 270° |
| 2026-05-05 11:05 | 38.10836 | 23.89537 | 10570 ft | 329 kts | 270° |
| 2026-05-05 11:05 | 38.10743 | 23.86562 | 10866 ft | 342 kts | 269° |
| 2026-05-05 11:05 | 38.10643 | 23.83549 | 11414 ft | 347 kts | 269° |
| 2026-05-05 11:05 | 38.10535 | 23.80471 | 12010 ft | 349 kts | 269° |
| 2026-05-05 11:06 | 38.10424 | 23.77377 | 12586 ft | 352 kts | 269° |
| 2026-05-05 11:06 | 38.10313 | 23.74264 | 13175 ft | 354 kts | 269° |
| 2026-05-05 11:06 | 38.10201 | 23.71125 | 13772 ft | 356 kts | 269° |
| 2026-05-05 11:06 | 38.10086 | 23.67961 | 14324 ft | 359 kts | 270° |
| 2026-05-05 11:07 | 38.09970 | 23.64784 | 14875 ft | 360 kts | 270° |
| 2026-05-05 11:07 | 38.09853 | 23.61634 | 15401 ft | 362 kts | 270° |
| 2026-05-05 11:07 | 38.09737 | 23.58433 | 15908 ft | 364 kts | 270° |
| 2026-05-05 11:07 | 38.09619 | 23.55215 | 16393 ft | 366 kts | 270° |
| 2026-05-05 11:08 | 38.09501 | 23.51960 | 16881 ft | 368 kts | 270° |
| 2026-05-05 11:08 | 38.09381 | 23.48690 | 17363 ft | 371 kts | 270° |
| 2026-05-05 11:08 | 38.09257 | 23.45438 | 17839 ft | 373 kts | 270° |
| 2026-05-05 11:08 | 38.09130 | 23.42134 | 18320 ft | 375 kts | 270° |
| 2026-05-05 11:09 | 38.09001 | 23.38813 | 18719 ft | 378 kts | 271° |
| 2026-05-05 11:09 | 38.08873 | 23.35476 | 19083 ft | 379 kts | 271° |
| 2026-05-05 11:09 | 38.08741 | 23.32116 | 19473 ft | 381 kts | 270° |
| 2026-05-05 11:09 | 38.08608 | 23.28740 | 19805 ft | 382 kts | 271° |
| 2026-05-05 11:10 | 38.08519 | 23.26504 | 20043 ft | 384 kts | 271° |
| 2026-05-05 11:10 | 38.08338 | 23.22000 | 20581 ft | 386 kts | 271° |
| 2026-05-05 11:10 | 38.08202 | 23.18591 | 20978 ft | 388 kts | 271° |
| 2026-05-05 11:10 | 38.08065 | 23.15156 | 21367 ft | 390 kts | 271° |
| 2026-05-05 11:11 | 38.07971 | 23.12837 | 21618 ft | 391 kts | 271° |
| 2026-05-05 11:11 | 38.07830 | 23.09384 | 21992 ft | 393 kts | 271° |
| 2026-05-05 11:11 | 38.07687 | 23.05906 | 22366 ft | 394 kts | 271° |
| 2026-05-05 11:11 | 38.07544 | 23.02464 | 22718 ft | 396 kts | 272° |
| 2026-05-05 11:12 | 38.07397 | 22.98967 | 23076 ft | 398 kts | 272° |
| 2026-05-05 11:12 | 38.07249 | 22.95446 | 23458 ft | 400 kts | 271° |
| 2026-05-05 11:12 | 38.07101 | 22.91912 | 23793 ft | 402 kts | 272° |
| 2026-05-05 11:12 | 38.06952 | 22.88360 | 24089 ft | 403 kts | 272° |
| 2026-05-05 11:13 | 38.06799 | 22.84782 | 24404 ft | 405 kts | 272° |
| 2026-05-05 11:13 | 38.06645 | 22.81200 | 24711 ft | 406 kts | 272° |
| 2026-05-05 11:13 | 38.06491 | 22.77617 | 25019 ft | 407 kts | 272° |
| 2026-05-05 11:13 | 38.06438 | 22.74037 | 25307 ft | 404 kts | 279° |
| 2026-05-05 11:14 | 38.06862 | 22.70573 | 25583 ft | 399 kts | 289° |
| 2026-05-05 11:14 | 38.07784 | 22.67277 | 25886 ft | 395 kts | 299° |
| 2026-05-05 11:14 | 38.09161 | 22.64268 | 26179 ft | 393 kts | 307° |
| 2026-05-05 11:14 | 38.10727 | 22.61419 | 26477 ft | 394 kts | 307° |
| 2026-05-05 11:15 | 38.12297 | 22.58556 | 26769 ft | 395 kts | 307° |
| 2026-05-05 11:15 | 38.13869 | 22.55682 | 27064 ft | 396 kts | 307° |
| 2026-05-05 11:15 | 38.15446 | 22.52798 | 27359 ft | 397 kts | 307° |
| 2026-05-05 11:15 | 38.17024 | 22.49908 | 27654 ft | 398 kts | 307° |
| 2026-05-05 11:16 | 38.18585 | 22.47047 | 27935 ft | 399 kts | 307° |
| 2026-05-05 11:16 | 38.20164 | 22.44148 | 28217 ft | 400 kts | 307° |
| 2026-05-05 11:16 | 38.21752 | 22.41229 | 28494 ft | 401 kts | 307° |
| 2026-05-05 11:16 | 38.23337 | 22.38309 | 28780 ft | 401 kts | 307° |
| 2026-05-05 11:17 | 38.24927 | 22.35373 | 29051 ft | 402 kts | 307° |
| 2026-05-05 11:17 | 38.26517 | 22.32439 | 29303 ft | 403 kts | 307° |
| 2026-05-05 11:17 | 38.28115 | 22.29495 | 29543 ft | 404 kts | 307° |
| 2026-05-05 11:17 | 38.29715 | 22.26544 | 29783 ft | 405 kts | 307° |
| 2026-05-05 11:18 | 38.31318 | 22.23584 | 30012 ft | 406 kts | 307° |
| 2026-05-05 11:18 | 38.32924 | 22.20620 | 30222 ft | 406 kts | 307° |
| 2026-05-05 11:18 | 38.34508 | 22.17690 | 30439 ft | 406 kts | 307° |
| 2026-05-05 11:18 | 38.36105 | 22.14724 | 30674 ft | 405 kts | 307° |
| 2026-05-05 11:19 | 38.37694 | 22.11771 | 30894 ft | 404 kts | 307° |
| 2026-05-05 11:19 | 38.39287 | 22.08810 | 31096 ft | 404 kts | 307° |
| 2026-05-05 11:19 | 38.40875 | 22.05856 | 31261 ft | 404 kts | 307° |
| 2026-05-05 11:19 | 38.42454 | 22.02915 | 31448 ft | 403 kts | 307° |
| 2026-05-05 11:20 | 38.44043 | 21.99955 | 31669 ft | 403 kts | 307° |
| 2026-05-05 11:20 | 38.45623 | 21.97009 | 31894 ft | 402 kts | 307° |
| 2026-05-05 11:20 | 38.47204 | 21.94055 | 32129 ft | 402 kts | 307° |
| 2026-05-05 11:20 | 38.48783 | 21.91106 | 32411 ft | 402 kts | 306° |
| 2026-05-05 11:21 | 38.50364 | 21.88154 | 32733 ft | 401 kts | 306° |
| 2026-05-05 11:21 | 38.51918 | 21.85246 | 33023 ft | 400 kts | 306° |
| 2026-05-05 11:21 | 38.53486 | 21.82309 | 33286 ft | 399 kts | 306° |
| 2026-05-05 11:21 | 38.55052 | 21.79377 | 33505 ft | 399 kts | 306° |
| 2026-05-05 11:22 | 38.56623 | 21.76438 | 33747 ft | 398 kts | 306° |
| 2026-05-05 11:22 | 38.58182 | 21.73511 | 33923 ft | 398 kts | 306° |
| 2026-05-05 11:22 | 38.59738 | 21.70581 | 34091 ft | 398 kts | 306° |
| 2026-05-05 11:23 | 38.62819 | 21.64777 | 34137 ft | 395 kts | 306° |
| 2026-05-05 11:23 | 38.65909 | 21.58950 | 34137 ft | 394 kts | 306° |
| 2026-05-05 11:24 | 38.68982 | 21.53142 | 34131 ft | 394 kts | 306° |
| 2026-05-05 11:24 | 38.72732 | 21.48126 | 34130 ft | 392 kts | 324° |
| 2026-05-05 11:25 | 38.77535 | 21.44781 | 34139 ft | 394 kts | 332° |
| 2026-05-05 11:25 | 38.82407 | 21.41647 | 34141 ft | 394 kts | 331° |
| 2026-05-05 11:26 | 38.87313 | 21.38467 | 34149 ft | 394 kts | 331° |
| 2026-05-05 11:26 | 38.92229 | 21.35283 | 34152 ft | 395 kts | 331° |
| 2026-05-05 11:27 | 38.97112 | 21.32126 | 34152 ft | 395 kts | 331° |
| 2026-05-05 11:27 | 39.02029 | 21.28946 | 34158 ft | 395 kts | 331° |
| 2026-05-05 11:28 | 39.06940 | 21.25758 | 34156 ft | 395 kts | 331° |
| 2026-05-05 11:28 | 39.11831 | 21.22574 | 34159 ft | 395 kts | 331° |
| 2026-05-05 11:29 | 39.16741 | 21.19370 | 34160 ft | 395 kts | 331° |
| 2026-05-05 11:29 | 39.21650 | 21.16166 | 34167 ft | 395 kts | 331° |
| 2026-05-05 11:30 | 39.26559 | 21.12954 | 34166 ft | 395 kts | 331° |
| 2026-05-05 11:30 | 39.31479 | 21.09737 | 34168 ft | 395 kts | 331° |
| 2026-05-05 11:31 | 39.36354 | 21.06541 | 34161 ft | 395 kts | 330° |
| 2026-05-05 11:31 | 39.41270 | 21.03309 | 34163 ft | 395 kts | 330° |
| 2026-05-05 11:32 | 39.46187 | 21.00075 | 34156 ft | 396 kts | 330° |
| 2026-05-05 11:32 | 39.51062 | 20.96866 | 34156 ft | 395 kts | 330° |
| 2026-05-05 11:33 | 39.55970 | 20.93632 | 34158 ft | 395 kts | 330° |
| 2026-05-05 11:33 | 39.60876 | 20.90394 | 34163 ft | 395 kts | 330° |
| 2026-05-05 11:34 | 39.65785 | 20.87154 | 34162 ft | 395 kts | 330° |
| 2026-05-05 11:34 | 39.70659 | 20.83920 | 34162 ft | 395 kts | 330° |
| 2026-05-05 11:35 | 39.75557 | 20.80663 | 34161 ft | 395 kts | 330° |
| 2026-05-05 11:35 | 39.80455 | 20.77406 | 34160 ft | 395 kts | 330° |
| 2026-05-05 11:36 | 39.85355 | 20.74137 | 34155 ft | 395 kts | 330° |
| 2026-05-05 11:36 | 39.90226 | 20.70888 | 34151 ft | 395 kts | 330° |
| 2026-05-05 11:37 | 39.95126 | 20.67613 | 34146 ft | 395 kts | 330° |
| 2026-05-05 11:37 | 40.00030 | 20.64331 | 34140 ft | 395 kts | 330° |
| 2026-05-05 11:38 | 40.04925 | 20.61051 | 34138 ft | 395 kts | 330° |
| 2026-05-05 11:38 | 40.09836 | 20.57783 | 34139 ft | 396 kts | 331° |
| 2026-05-05 11:39 | 40.14794 | 20.54625 | 34135 ft | 396 kts | 331° |
| 2026-05-05 11:39 | 40.19743 | 20.51496 | 34138 ft | 396 kts | 331° |
| 2026-05-05 11:40 | 40.24704 | 20.48333 | 34136 ft | 396 kts | 331° |
| 2026-05-05 11:40 | 40.29653 | 20.45152 | 34134 ft | 396 kts | 331° |
| 2026-05-05 11:41 | 40.34579 | 20.41984 | 34135 ft | 396 kts | 331° |
| 2026-05-05 11:41 | 40.39547 | 20.38795 | 34138 ft | 396 kts | 331° |
| 2026-05-05 11:42 | 40.44508 | 20.35598 | 34135 ft | 397 kts | 331° |
| 2026-05-05 11:42 | 40.49430 | 20.32403 | 34130 ft | 396 kts | 331° |
| 2026-05-05 11:43 | 40.54387 | 20.29181 | 34139 ft | 396 kts | 331° |
| 2026-05-05 11:43 | 40.59333 | 20.25940 | 34133 ft | 396 kts | 330° |
| 2026-05-05 11:44 | 40.64271 | 20.22700 | 34133 ft | 396 kts | 330° |
| 2026-05-05 11:44 | 40.69175 | 20.19484 | 34137 ft | 396 kts | 330° |
| 2026-05-05 11:45 | 40.74105 | 20.16235 | 34140 ft | 395 kts | 330° |
| 2026-05-05 11:45 | 40.79030 | 20.12987 | 34146 ft | 395 kts | 330° |
| 2026-05-05 11:46 | 40.83958 | 20.09740 | 34144 ft | 395 kts | 330° |
| 2026-05-05 11:46 | 40.88884 | 20.06599 | 34136 ft | 396 kts | 333° |
| 2026-05-05 11:47 | 40.93982 | 20.03796 | 34140 ft | 396 kts | 334° |
| 2026-05-05 11:47 | 40.99116 | 20.01072 | 34149 ft | 396 kts | 334° |
| 2026-05-05 11:48 | 41.06749 | 19.96874 | 34150 ft | 396 kts | 333° |
| 2026-05-05 11:48 | 41.10970 | 19.94511 | 34143 ft | 395 kts | 333° |
| 2026-05-05 11:49 | 41.16867 | 19.91210 | 34150 ft | 395 kts | 333° |
| 2026-05-05 11:49 | 41.21120 | 19.88836 | 34148 ft | 395 kts | 333° |
| 2026-05-05 11:50 | 41.26197 | 19.85997 | 34150 ft | 395 kts | 333° |
| 2026-05-05 11:50 | 41.31245 | 19.83168 | 34149 ft | 396 kts | 333° |
| 2026-05-05 11:51 | 41.36327 | 19.80316 | 34151 ft | 396 kts | 333° |
| 2026-05-05 11:51 | 41.41429 | 19.77451 | 34157 ft | 397 kts | 333° |
| 2026-05-05 11:52 | 41.46497 | 19.74597 | 34157 ft | 397 kts | 333° |
| 2026-05-05 11:52 | 41.51588 | 19.71718 | 34159 ft | 397 kts | 333° |
| 2026-05-05 11:53 | 41.56687 | 19.68838 | 34161 ft | 397 kts | 333° |
| 2026-05-05 11:53 | 41.61782 | 19.65963 | 34161 ft | 397 kts | 333° |
| 2026-05-05 11:54 | 41.66855 | 19.63091 | 34160 ft | 398 kts | 333° |
| 2026-05-05 11:54 | 41.71960 | 19.60188 | 34156 ft | 399 kts | 332° |
| 2026-05-05 11:55 | 41.77075 | 19.57276 | 34158 ft | 399 kts | 332° |
| 2026-05-05 11:55 | 41.82169 | 19.54368 | 34162 ft | 400 kts | 332° |
| 2026-05-05 11:56 | 41.87307 | 19.51427 | 34156 ft | 400 kts | 332° |
| 2026-05-05 11:56 | 41.92443 | 19.48491 | 34154 ft | 401 kts | 332° |
| 2026-05-05 11:57 | 41.97558 | 19.45567 | 34155 ft | 401 kts | 332° |
| 2026-05-05 11:57 | 42.02793 | 19.42866 | 34154 ft | 405 kts | 335° |
| 2026-05-05 11:58 | 42.08144 | 19.40427 | 34154 ft | 406 kts | 336° |
| 2026-05-05 11:58 | 42.13490 | 19.37977 | 34153 ft | 406 kts | 335° |
| 2026-05-05 11:59 | 42.18835 | 19.35447 | 34157 ft | 406 kts | 335° |
| 2026-05-05 11:59 | 42.24016 | 19.32634 | 34157 ft | 400 kts | 326° |
| 2026-05-05 12:00 | 42.28859 | 19.28926 | 34156 ft | 400 kts | 326° |
| 2026-05-05 12:00 | 42.33718 | 19.25225 | 34161 ft | 400 kts | 326° |
| 2026-05-05 12:01 | 42.38563 | 19.21545 | 34158 ft | 401 kts | 326° |
| 2026-05-05 12:01 | 42.43440 | 19.17825 | 34154 ft | 401 kts | 326° |
| 2026-05-05 12:02 | 42.48305 | 19.14101 | 34145 ft | 402 kts | 326° |
| 2026-05-05 12:02 | 42.53151 | 19.10377 | 34148 ft | 402 kts | 325° |
| 2026-05-05 12:03 | 42.58025 | 19.06623 | 34150 ft | 403 kts | 325° |
| 2026-05-05 12:03 | 42.62907 | 19.02858 | 34139 ft | 404 kts | 326° |
| 2026-05-05 12:04 | 42.67803 | 18.99082 | 34125 ft | 405 kts | 326° |
| 2026-05-05 12:04 | 42.72710 | 18.95290 | 34124 ft | 406 kts | 326° |
| 2026-05-05 12:05 | 42.77600 | 18.91514 | 34119 ft | 407 kts | 326° |
| 2026-05-05 12:05 | 42.82529 | 18.87688 | 34116 ft | 407 kts | 326° |
| 2026-05-05 12:06 | 42.87456 | 18.83837 | 34111 ft | 409 kts | 326° |
| 2026-05-05 12:06 | 42.92413 | 18.79974 | 34105 ft | 410 kts | 326° |
| 2026-05-05 12:07 | 42.97385 | 18.76102 | 34099 ft | 411 kts | 327° |
| 2026-05-05 12:07 | 43.02336 | 18.72240 | 34096 ft | 413 kts | 327° |
| 2026-05-05 12:08 | 43.07343 | 18.68328 | 34093 ft | 414 kts | 327° |
| 2026-05-05 12:08 | 43.12351 | 18.64401 | 34092 ft | 415 kts | 327° |
| 2026-05-05 12:09 | 43.17337 | 18.60477 | 34097 ft | 416 kts | 327° |
| 2026-05-05 12:09 | 43.22367 | 18.56512 | 34092 ft | 417 kts | 327° |
| 2026-05-05 12:10 | 43.27400 | 18.52539 | 34092 ft | 418 kts | 327° |
| 2026-05-05 12:10 | 43.32444 | 18.48552 | 34089 ft | 418 kts | 327° |
| 2026-05-05 12:11 | 43.37506 | 18.44551 | 34089 ft | 419 kts | 327° |
| 2026-05-05 12:11 | 43.42544 | 18.40549 | 34093 ft | 420 kts | 327° |
| 2026-05-05 12:12 | 43.47629 | 18.36501 | 34092 ft | 420 kts | 327° |
| 2026-05-05 12:12 | 43.52671 | 18.32491 | 34084 ft | 421 kts | 327° |
| 2026-05-05 12:13 | 43.57742 | 18.28447 | 34065 ft | 421 kts | 327° |
| 2026-05-05 12:13 | 43.62824 | 18.24384 | 34052 ft | 422 kts | 327° |
| 2026-05-05 12:14 | 43.67925 | 18.20289 | 34049 ft | 423 kts | 327° |
| 2026-05-05 12:14 | 43.73025 | 18.16187 | 34039 ft | 424 kts | 327° |
| 2026-05-05 12:15 | 43.78110 | 18.12099 | 34045 ft | 424 kts | 327° |
| 2026-05-05 12:15 | 43.83216 | 18.07987 | 34052 ft | 425 kts | 327° |
| 2026-05-05 12:16 | 43.88323 | 18.03858 | 34053 ft | 425 kts | 327° |
| 2026-05-05 12:16 | 43.93419 | 17.99740 | 34054 ft | 425 kts | 327° |
| 2026-05-05 12:17 | 43.98566 | 17.95568 | 34055 ft | 426 kts | 327° |
| 2026-05-05 12:17 | 44.03662 | 17.91426 | 34052 ft | 426 kts | 327° |
| 2026-05-05 12:18 | 44.08777 | 17.87254 | 34052 ft | 426 kts | 327° |
| 2026-05-05 12:18 | 44.13902 | 17.83069 | 34053 ft | 426 kts | 326° |
| 2026-05-05 12:19 | 44.18995 | 17.78903 | 34052 ft | 427 kts | 326° |
| 2026-05-05 12:19 | 44.24120 | 17.74716 | 34030 ft | 427 kts | 326° |
| 2026-05-05 12:20 | 44.29248 | 17.70505 | 34036 ft | 427 kts | 326° |
| 2026-05-05 12:20 | 44.34393 | 17.66265 | 34028 ft | 428 kts | 326° |
| 2026-05-05 12:21 | 44.39488 | 17.62060 | 34030 ft | 428 kts | 326° |
| 2026-05-05 12:21 | 44.44622 | 17.57820 | 34025 ft | 428 kts | 326° |
| 2026-05-05 12:22 | 44.49773 | 17.53564 | 34024 ft | 429 kts | 326° |
| 2026-05-05 12:22 | 44.54924 | 17.49291 | 34015 ft | 430 kts | 326° |
| 2026-05-05 12:23 | 44.60049 | 17.45028 | 34016 ft | 430 kts | 326° |
| 2026-05-05 12:23 | 44.65200 | 17.40731 | 33999 ft | 430 kts | 326° |
| 2026-05-05 12:24 | 44.70370 | 17.36417 | 33995 ft | 431 kts | 326° |
| 2026-05-05 12:24 | 44.75505 | 17.32125 | 33989 ft | 432 kts | 326° |
| 2026-05-05 12:25 | 44.80676 | 17.27781 | 33984 ft | 433 kts | 326° |
| 2026-05-05 12:25 | 44.85868 | 17.23425 | 33980 ft | 434 kts | 326° |
| 2026-05-05 12:26 | 44.91035 | 17.19081 | 33991 ft | 434 kts | 326° |
| 2026-05-05 12:26 | 44.96221 | 17.14700 | 33986 ft | 434 kts | 326° |
| 2026-05-05 12:27 | 45.01405 | 17.10313 | 34001 ft | 434 kts | 326° |
| 2026-05-05 12:27 | 45.05722 | 17.06663 | 34006 ft | 433 kts | 326° |
| 2026-05-05 12:28 | 45.10905 | 17.02269 | 34007 ft | 433 kts | 326° |
| 2026-05-05 12:28 | 45.16050 | 16.97900 | 34013 ft | 433 kts | 326° |
| 2026-05-05 12:29 | 45.21220 | 16.93495 | 34011 ft | 433 kts | 326° |
| 2026-05-05 12:29 | 45.26385 | 16.89074 | 34015 ft | 433 kts | 326° |
| 2026-05-05 12:30 | 45.31520 | 16.84671 | 34012 ft | 434 kts | 326° |
| 2026-05-05 12:30 | 45.36701 | 16.80229 | 34007 ft | 435 kts | 326° |
| 2026-05-05 12:31 | 45.41889 | 16.75768 | 34000 ft | 436 kts | 326° |
| 2026-05-05 12:31 | 45.47092 | 16.71286 | 34000 ft | 437 kts | 326° |
| 2026-05-05 12:32 | 45.52264 | 16.66820 | 33997 ft | 437 kts | 326° |
| 2026-05-05 12:32 | 45.57467 | 16.62317 | 34000 ft | 438 kts | 326° |
| 2026-05-05 12:33 | 45.62688 | 16.57795 | 34006 ft | 438 kts | 326° |
| 2026-05-05 12:33 | 45.67910 | 16.53256 | 34016 ft | 439 kts | 326° |
| 2026-05-05 12:34 | 45.73136 | 16.48707 | 34023 ft | 439 kts | 326° |
| 2026-05-05 12:34 | 45.78355 | 16.44147 | 34020 ft | 439 kts | 326° |
| 2026-05-05 12:35 | 45.83541 | 16.39607 | 34017 ft | 439 kts | 325° |
| 2026-05-05 12:35 | 45.88763 | 16.35027 | 34015 ft | 440 kts | 325° |
| 2026-05-05 12:36 | 45.94008 | 16.30421 | 34008 ft | 441 kts | 326° |
| 2026-05-05 12:36 | 45.99249 | 16.25812 | 34008 ft | 442 kts | 325° |
| 2026-05-05 12:37 | 46.04468 | 16.21208 | 34009 ft | 442 kts | 325° |
| 2026-05-05 12:37 | 46.09715 | 16.16561 | 33997 ft | 443 kts | 325° |
| 2026-05-05 12:38 | 46.14964 | 16.11899 | 34001 ft | 443 kts | 325° |
| 2026-05-05 12:38 | 46.20216 | 16.07234 | 34000 ft | 443 kts | 325° |
| 2026-05-05 12:39 | 46.25468 | 16.02553 | 33997 ft | 443 kts | 325° |
| 2026-05-05 12:39 | 46.30720 | 15.97864 | 33990 ft | 443 kts | 324° |
| 2026-05-05 12:40 | 46.35869 | 15.93036 | 33991 ft | 442 kts | 322° |
| 2026-05-05 12:40 | 46.40962 | 15.88019 | 33989 ft | 442 kts | 322° |
| 2026-05-05 12:41 | 46.46062 | 15.82993 | 33978 ft | 443 kts | 322° |
| 2026-05-05 12:41 | 46.51176 | 15.78010 | 33980 ft | 443 kts | 323° |
| 2026-05-05 12:42 | 46.56298 | 15.73017 | 33980 ft | 443 kts | 322° |
| 2026-05-05 12:42 | 46.61416 | 15.68013 | 33977 ft | 443 kts | 322° |
| 2026-05-05 12:43 | 46.66513 | 15.63013 | 33968 ft | 443 kts | 322° |
| 2026-05-05 12:43 | 46.71632 | 15.57979 | 33957 ft | 444 kts | 322° |
| 2026-05-05 12:44 | 46.76755 | 15.52925 | 33913 ft | 444 kts | 323° |
| 2026-05-05 12:44 | 46.81842 | 15.47893 | 33910 ft | 444 kts | 322° |
| 2026-05-05 12:45 | 46.86962 | 15.42832 | 33910 ft | 444 kts | 322° |
| 2026-05-05 12:45 | 46.92079 | 15.37752 | 33910 ft | 443 kts | 322° |
| 2026-05-05 12:46 | 46.97151 | 15.32708 | 33914 ft | 442 kts | 322° |
| 2026-05-05 12:46 | 47.02238 | 15.27635 | 33918 ft | 442 kts | 322° |
| 2026-05-05 12:47 | 47.07318 | 15.22553 | 33915 ft | 441 kts | 322° |
| 2026-05-05 12:47 | 47.12388 | 15.17474 | 33908 ft | 441 kts | 322° |
| 2026-05-05 12:48 | 47.17461 | 15.12383 | 33915 ft | 441 kts | 322° |
| 2026-05-05 12:48 | 47.22508 | 15.07299 | 33916 ft | 441 kts | 322° |
| 2026-05-05 12:49 | 47.27572 | 15.02187 | 33915 ft | 441 kts | 322° |
| 2026-05-05 12:49 | 47.32651 | 14.97052 | 33908 ft | 442 kts | 321° |
| 2026-05-05 12:50 | 47.37730 | 14.91897 | 33899 ft | 443 kts | 321° |
| 2026-05-05 12:50 | 47.42754 | 14.86801 | 33887 ft | 444 kts | 321° |
| 2026-05-05 12:51 | 47.47850 | 14.81622 | 33876 ft | 445 kts | 321° |
| 2026-05-05 12:51 | 47.52919 | 14.76436 | 33865 ft | 445 kts | 321° |
| 2026-05-05 12:52 | 47.58018 | 14.71224 | 33850 ft | 445 kts | 322° |
| 2026-05-05 12:52 | 47.63125 | 14.65985 | 33847 ft | 445 kts | 322° |
| 2026-05-05 12:53 | 47.68215 | 14.60747 | 33839 ft | 445 kts | 322° |
| 2026-05-05 12:53 | 47.73264 | 14.55540 | 33842 ft | 445 kts | 322° |
| 2026-05-05 12:54 | 47.80884 | 14.47655 | 33837 ft | 444 kts | 322° |
| 2026-05-05 12:55 | 47.85950 | 14.42402 | 33826 ft | 443 kts | 322° |
| 2026-05-05 12:55 | 47.91010 | 14.37144 | 33819 ft | 442 kts | 322° |
| 2026-05-05 12:56 | 47.96062 | 14.31882 | 33814 ft | 442 kts | 321° |
| 2026-05-05 12:56 | 48.01063 | 14.26653 | 33813 ft | 441 kts | 321° |
| 2026-05-05 12:57 | 48.06087 | 14.21394 | 33808 ft | 441 kts | 321° |
| 2026-05-05 12:57 | 48.11115 | 14.16112 | 33805 ft | 441 kts | 321° |
| 2026-05-05 12:58 | 48.16146 | 14.10812 | 33799 ft | 441 kts | 321° |
| 2026-05-05 12:58 | 48.21141 | 14.05546 | 33798 ft | 441 kts | 321° |
| 2026-05-05 12:59 | 48.26173 | 14.00224 | 33800 ft | 441 kts | 321° |
| 2026-05-05 12:59 | 48.31195 | 13.94901 | 33804 ft | 442 kts | 321° |
| 2026-05-05 13:00 | 48.38730 | 13.86885 | 33811 ft | 442 kts | 321° |
| 2026-05-05 13:01 | 48.48778 | 13.76155 | 33812 ft | 443 kts | 321° |
| 2026-05-05 13:01 | 48.53762 | 13.70808 | 33814 ft | 443 kts | 321° |
| 2026-05-05 13:02 | 48.58790 | 13.65405 | 33811 ft | 443 kts | 321° |
| 2026-05-05 13:02 | 48.63821 | 13.59985 | 33814 ft | 443 kts | 321° |
| 2026-05-05 13:03 | 48.68363 | 13.53849 | 33817 ft | 439 kts | 312° |
| 2026-05-05 13:03 | 48.72692 | 13.47345 | 33815 ft | 438 kts | 312° |
| 2026-05-05 13:04 | 48.77017 | 13.40833 | 33815 ft | 438 kts | 312° |
| 2026-05-05 13:04 | 48.81350 | 13.34302 | 33810 ft | 438 kts | 312° |
| 2026-05-05 13:05 | 48.85646 | 13.27817 | 33804 ft | 437 kts | 311° |
| 2026-05-05 13:05 | 48.89954 | 13.21285 | 33807 ft | 437 kts | 311° |
| 2026-05-05 13:06 | 48.94259 | 13.14732 | 33797 ft | 438 kts | 311° |
| 2026-05-05 13:06 | 48.97844 | 13.09267 | 33794 ft | 438 kts | 311° |
| 2026-05-05 13:07 | 49.02163 | 13.02681 | 33795 ft | 438 kts | 311° |
| 2026-05-05 13:07 | 49.06437 | 12.96128 | 33801 ft | 438 kts | 311° |
| 2026-05-05 13:08 | 49.10759 | 12.89493 | 33797 ft | 438 kts | 311° |
| 2026-05-05 13:08 | 49.15027 | 12.82931 | 33785 ft | 438 kts | 311° |
| 2026-05-05 13:09 | 49.19329 | 12.76305 | 33787 ft | 438 kts | 310° |
| 2026-05-05 13:09 | 49.23616 | 12.69661 | 33776 ft | 439 kts | 310° |
| 2026-05-05 13:10 | 49.27905 | 12.62992 | 33781 ft | 439 kts | 310° |
| 2026-05-05 13:10 | 49.32073 | 12.56232 | 33783 ft | 436 kts | 303° |
| 2026-05-05 13:11 | 49.35000 | 12.48216 | 33783 ft | 426 kts | 286° |
| 2026-05-05 13:11 | 49.37016 | 12.39659 | 33784 ft | 426 kts | 285° |
| 2026-05-05 13:12 | 49.39021 | 12.31139 | 33786 ft | 426 kts | 285° |
| 2026-05-05 13:12 | 49.41033 | 12.22573 | 33788 ft | 426 kts | 285° |
| 2026-05-05 13:13 | 49.43039 | 12.13981 | 33793 ft | 426 kts | 285° |
| 2026-05-05 13:13 | 49.45032 | 12.05387 | 33791 ft | 426 kts | 285° |
| 2026-05-05 13:14 | 49.47062 | 11.96884 | 33792 ft | 429 kts | 290° |
| 2026-05-05 13:14 | 49.50301 | 11.89068 | 33789 ft | 436 kts | 302° |
| 2026-05-05 13:15 | 49.53941 | 11.81578 | 33791 ft | 437 kts | 302° |
| 2026-05-05 13:15 | 49.57552 | 11.74099 | 33795 ft | 437 kts | 302° |
| 2026-05-05 13:16 | 49.61174 | 11.66554 | 33795 ft | 437 kts | 301° |
| 2026-05-05 13:16 | 49.64787 | 11.59004 | 33798 ft | 437 kts | 301° |
| 2026-05-05 13:17 | 49.68404 | 11.51435 | 33800 ft | 437 kts | 301° |
| 2026-05-05 13:17 | 49.71995 | 11.43905 | 33810 ft | 437 kts | 301° |
| 2026-05-05 13:18 | 49.75595 | 11.36317 | 33813 ft | 437 kts | 301° |
| 2026-05-05 13:18 | 49.79184 | 11.28732 | 33815 ft | 437 kts | 301° |
| 2026-05-05 13:19 | 49.82778 | 11.21136 | 33819 ft | 437 kts | 301° |
| 2026-05-05 13:19 | 49.86378 | 11.13511 | 33821 ft | 436 kts | 301° |
| 2026-05-05 13:20 | 49.89956 | 11.05900 | 33823 ft | 436 kts | 301° |
| 2026-05-05 13:20 | 49.93492 | 10.98334 | 33823 ft | 436 kts | 301° |
| 2026-05-05 13:21 | 49.97055 | 10.90712 | 33823 ft | 436 kts | 301° |
| 2026-05-05 13:21 | 50.00614 | 10.83074 | 33825 ft | 436 kts | 301° |
| 2026-05-05 13:22 | 50.04172 | 10.75416 | 33825 ft | 436 kts | 300° |
| 2026-05-05 13:22 | 50.07727 | 10.67747 | 33829 ft | 437 kts | 300° |
| 2026-05-05 13:23 | 50.11279 | 10.60056 | 33834 ft | 437 kts | 300° |
| 2026-05-05 13:23 | 50.14812 | 10.52388 | 33838 ft | 437 kts | 300° |
| 2026-05-05 13:24 | 50.18348 | 10.44671 | 33840 ft | 437 kts | 300° |
| 2026-05-05 13:24 | 50.21888 | 10.36930 | 33845 ft | 437 kts | 300° |
| 2026-05-05 13:25 | 50.25372 | 10.29200 | 33844 ft | 436 kts | 299° |
| 2026-05-05 13:25 | 50.28846 | 10.21390 | 33849 ft | 436 kts | 299° |
| 2026-05-05 13:26 | 50.32304 | 10.13582 | 33850 ft | 436 kts | 299° |
| 2026-05-05 13:26 | 50.35771 | 10.05773 | 33835 ft | 436 kts | 299° |
| 2026-05-05 13:27 | 50.39215 | 9.98011 | 33848 ft | 436 kts | 299° |
| 2026-05-05 13:27 | 50.42673 | 9.90189 | 33843 ft | 436 kts | 299° |
| 2026-05-05 13:28 | 50.46130 | 9.82349 | 33841 ft | 437 kts | 298° |
| 2026-05-05 13:28 | 50.49587 | 9.74481 | 33843 ft | 437 kts | 298° |
| 2026-05-05 13:29 | 50.52985 | 9.66699 | 33845 ft | 437 kts | 298° |
| 2026-05-05 13:29 | 50.56447 | 9.58755 | 33851 ft | 437 kts | 298° |
| 2026-05-05 13:30 | 50.59887 | 9.50866 | 33848 ft | 436 kts | 298° |
| 2026-05-05 13:30 | 50.63316 | 9.42978 | 33849 ft | 436 kts | 298° |
| 2026-05-05 13:31 | 50.66742 | 9.35094 | 33852 ft | 435 kts | 298° |
| 2026-05-05 13:31 | 50.70155 | 9.27201 | 33852 ft | 435 kts | 298° |
| 2026-05-05 13:32 | 50.73536 | 9.19346 | 33852 ft | 434 kts | 298° |
| 2026-05-05 13:32 | 50.76918 | 9.11442 | 33854 ft | 434 kts | 298° |
| 2026-05-05 13:33 | 50.80298 | 9.03528 | 33849 ft | 434 kts | 298° |
| 2026-05-05 13:33 | 50.83688 | 8.95604 | 33845 ft | 435 kts | 299° |
| 2026-05-05 13:34 | 50.87343 | 8.88006 | 33685 ft | 434 kts | 303° |
| 2026-05-05 13:34 | 50.89245 | 8.84335 | 33376 ft | 427 kts | 303° |
| 2026-05-05 13:34 | 50.91134 | 8.80720 | 32901 ft | 423 kts | 303° |
| 2026-05-05 13:35 | 50.92993 | 8.77122 | 32428 ft | 418 kts | 303° |
| 2026-05-05 13:35 | 50.94805 | 8.73551 | 31961 ft | 414 kts | 303° |
| 2026-05-05 13:35 | 50.96592 | 8.69984 | 31486 ft | 411 kts | 303° |
| 2026-05-05 13:35 | 50.98390 | 8.66421 | 30831 ft | 412 kts | 304° |
| 2026-05-05 13:36 | 51.00207 | 8.62884 | 30134 ft | 415 kts | 304° |
| 2026-05-05 13:36 | 51.02023 | 8.59384 | 29465 ft | 415 kts | 305° |
| 2026-05-05 13:36 | 51.03862 | 8.55845 | 28853 ft | 413 kts | 305° |
| 2026-05-05 13:36 | 51.05679 | 8.52331 | 28232 ft | 411 kts | 305° |
| 2026-05-05 13:37 | 51.07501 | 8.48785 | 27374 ft | 416 kts | 305° |
| 2026-05-05 13:37 | 51.09332 | 8.45196 | 26705 ft | 415 kts | 305° |
| 2026-05-05 13:37 | 51.11144 | 8.41631 | 26126 ft | 413 kts | 306° |
| 2026-05-05 13:37 | 51.12947 | 8.38084 | 25575 ft | 411 kts | 306° |
| 2026-05-05 13:38 | 51.14741 | 8.34556 | 25027 ft | 408 kts | 306° |
| 2026-05-05 13:38 | 51.16520 | 8.31047 | 24491 ft | 406 kts | 306° |
| 2026-05-05 13:38 | 51.18286 | 8.27556 | 23971 ft | 404 kts | 306° |
| 2026-05-05 13:38 | 51.20048 | 8.24073 | 23472 ft | 402 kts | 306° |
| 2026-05-05 13:39 | 51.21797 | 8.20613 | 22907 ft | 399 kts | 306° |
| 2026-05-05 13:39 | 51.23536 | 8.17170 | 22351 ft | 396 kts | 306° |
| 2026-05-05 13:39 | 51.25260 | 8.13752 | 21814 ft | 393 kts | 306° |
| 2026-05-05 13:39 | 51.26969 | 8.10357 | 21296 ft | 390 kts | 306° |
| 2026-05-05 13:40 | 51.28639 | 8.07036 | 20782 ft | 387 kts | 306° |
| 2026-05-05 13:40 | 51.30312 | 8.03704 | 20272 ft | 383 kts | 306° |
| 2026-05-05 13:40 | 51.31978 | 8.00385 | 19771 ft | 380 kts | 306° |
| 2026-05-05 13:40 | 51.33629 | 7.97092 | 19272 ft | 377 kts | 307° |
| 2026-05-05 13:41 | 51.35259 | 7.93829 | 18797 ft | 374 kts | 307° |
| 2026-05-05 13:41 | 51.36879 | 7.90578 | 18329 ft | 372 kts | 307° |
| 2026-05-05 13:41 | 51.38491 | 7.87350 | 17817 ft | 369 kts | 307° |
| 2026-05-05 13:41 | 51.39979 | 7.84021 | 17337 ft | 364 kts | 295° |
| 2026-05-05 13:42 | 51.40802 | 7.80258 | 16967 ft | 355 kts | 277° |
| 2026-05-05 13:42 | 51.40880 | 7.76449 | 16712 ft | 353 kts | 261° |
| 2026-05-05 13:42 | 51.40213 | 7.72615 | 16454 ft | 350 kts | 245° |
| 2026-05-05 13:42 | 51.39227 | 7.69054 | 16195 ft | 349 kts | 244° |
| 2026-05-05 13:43 | 51.38235 | 7.65508 | 15948 ft | 348 kts | 244° |
| 2026-05-05 13:43 | 51.37246 | 7.61974 | 15693 ft | 346 kts | 244° |
| 2026-05-05 13:43 | 51.36369 | 7.58381 | 15445 ft | 346 kts | 249° |
| 2026-05-05 13:43 | 51.35845 | 7.55965 | 15277 ft | 345 kts | 249° |
| 2026-05-05 13:44 | 51.34792 | 7.51191 | 14947 ft | 343 kts | 249° |
| 2026-05-05 13:44 | 51.33979 | 7.47614 | 14710 ft | 341 kts | 248° |
| 2026-05-05 13:44 | 51.33159 | 7.44054 | 14464 ft | 340 kts | 248° |
| 2026-05-05 13:44 | 51.32613 | 7.41699 | 14304 ft | 339 kts | 248° |
| 2026-05-05 13:45 | 51.31784 | 7.38121 | 14065 ft | 338 kts | 248° |
| 2026-05-05 13:45 | 51.30976 | 7.34633 | 13830 ft | 337 kts | 248° |
| 2026-05-05 13:45 | 51.30160 | 7.31126 | 13583 ft | 336 kts | 248° |
| 2026-05-05 13:45 | 51.29346 | 7.27634 | 13319 ft | 335 kts | 248° |
| 2026-05-05 13:46 | 51.28535 | 7.24149 | 13060 ft | 334 kts | 248° |
| 2026-05-05 13:46 | 51.27638 | 7.20848 | 12801 ft | 332 kts | 243° |
| 2026-05-05 13:46 | 51.26623 | 7.17527 | 12533 ft | 330 kts | 242° |
| 2026-05-05 13:46 | 51.25596 | 7.14281 | 12298 ft | 329 kts | 241° |
| 2026-05-05 13:47 | 51.24555 | 7.11032 | 12038 ft | 328 kts | 241° |
| 2026-05-05 13:47 | 51.23517 | 7.07793 | 11865 ft | 327 kts | 241° |
| 2026-05-05 13:47 | 51.22484 | 7.04562 | 11625 ft | 326 kts | 241° |
| 2026-05-05 13:47 | 51.21459 | 7.01344 | 11368 ft | 324 kts | 241° |
| 2026-05-05 13:48 | 51.20455 | 6.98183 | 11114 ft | 314 kts | 241° |
| 2026-05-05 13:48 | 51.19493 | 6.95160 | 10875 ft | 304 kts | 241° |
| 2026-05-05 13:48 | 51.18539 | 6.92173 | 10628 ft | 295 kts | 241° |
| 2026-05-05 13:48 | 51.17620 | 6.89290 | 10388 ft | 288 kts | 241° |
| 2026-05-05 13:49 | 51.16731 | 6.86499 | 10089 ft | 283 kts | 241° |
| 2026-05-05 13:49 | 51.15837 | 6.83687 | 9742 ft | 281 kts | 241° |
| 2026-05-05 13:49 | 51.14973 | 6.80960 | 9343 ft | 279 kts | 241° |
| 2026-05-05 13:49 | 51.14090 | 6.78164 | 8927 ft | 277 kts | 241° |
| 2026-05-05 13:50 | 51.13225 | 6.75432 | 8530 ft | 275 kts | 241° |
| 2026-05-05 13:50 | 51.12371 | 6.72744 | 8135 ft | 274 kts | 241° |
| 2026-05-05 13:50 | 51.11511 | 6.70050 | 7752 ft | 273 kts | 242° |
| 2026-05-05 13:50 | 51.10649 | 6.67361 | 7367 ft | 271 kts | 241° |
| 2026-05-05 13:51 | 51.09795 | 6.64689 | 6986 ft | 270 kts | 242° |
| 2026-05-05 13:51 | 51.08943 | 6.62033 | 6591 ft | 269 kts | 241° |
| 2026-05-05 13:51 | 51.08085 | 6.59389 | 6224 ft | 268 kts | 242° |
| 2026-05-05 13:51 | 51.07225 | 6.56775 | 5830 ft | 267 kts | 241° |
| 2026-05-05 13:52 | 51.06377 | 6.54201 | 5538 ft | 261 kts | 244° |
| 2026-05-05 13:52 | 51.05969 | 6.51454 | 5348 ft | 253 kts | 272° |
| 2026-05-05 13:52 | 51.06449 | 6.48829 | 5141 ft | 248 kts | 300° |
| 2026-05-05 13:52 | 51.07570 | 6.46746 | 4956 ft | 248 kts | 314° |
| 2026-05-05 13:53 | 51.08768 | 6.44813 | 4737 ft | 242 kts | 319° |
| 2026-05-05 13:53 | 51.10222 | 6.43588 | 4542 ft | 237 kts | 347° |
| 2026-05-05 13:53 | 51.11836 | 6.43586 | 4358 ft | 229 kts | 14° |
| 2026-05-05 13:53 | 51.13228 | 6.44710 | 4146 ft | 222 kts | 41° |
| 2026-05-05 13:54 | 51.14206 | 6.46528 | 3936 ft | 210 kts | 53° |
| 2026-05-05 13:54 | 51.15074 | 6.48335 | 3730 ft | 202 kts | 52° |
| 2026-05-05 13:54 | 51.15894 | 6.50038 | 3599 ft | 193 kts | 52° |
| 2026-05-05 13:54 | 51.16704 | 6.51719 | 3476 ft | 188 kts | 52° |
| 2026-05-05 13:55 | 51.17473 | 6.53316 | 3353 ft | 175 kts | 52° |
| 2026-05-05 13:55 | 51.18204 | 6.54835 | 3275 ft | 170 kts | 52° |
| 2026-05-05 13:55 | 51.18916 | 6.56316 | 3132 ft | 165 kts | 52° |
| 2026-05-05 13:55 | 51.19603 | 6.57745 | 2964 ft | 160 kts | 52° |
| 2026-05-05 13:56 | 51.20272 | 6.59139 | 2737 ft | 156 kts | 52° |
| 2026-05-05 13:56 | 51.20920 | 6.60488 | 2536 ft | 149 kts | 52° |
| 2026-05-05 13:56 | 51.21535 | 6.61768 | 2338 ft | 143 kts | 52° |
| 2026-05-05 13:56 | 51.22138 | 6.63026 | 2146 ft | 142 kts | 52° |
| 2026-05-05 13:57 | 51.22734 | 6.64270 | 1951 ft | 142 kts | 51° |
| 2026-05-05 13:57 | 51.23327 | 6.65507 | 1767 ft | 140 kts | 50° |
| 2026-05-05 13:57 | 51.23917 | 6.66740 | 1577 ft | 139 kts | 51° |
| 2026-05-05 13:57 | 51.24502 | 6.67957 | 1382 ft | 137 kts | 50° |
| 2026-05-05 13:58 | 51.25070 | 6.69141 | 1208 ft | 137 kts | 51° |
| 2026-05-05 13:58 | 51.25655 | 6.70382 | 979 ft | 139 kts | 50° |
| 2026-05-05 13:58 | 51.26241 | 6.71613 | 785 ft | 141 kts | 49° |
| 2026-05-05 13:58 | 51.26840 | 6.72871 | 585 ft | 142 kts | 49° |
| 2026-05-05 13:59 | 51.28060 | 6.75417 | 209 ft | 144 kts | 49° |
| 2026-05-05 13:59 | 51.28651 | 6.76640 | 131 ft | 126 kts | 53° |
| 2026-05-05 14:00 | 51.29279 | 6.77962 | 141 ft | 20 kts | 51° |
| 2026-05-05 14:00 | 51.29306 | 6.78065 | 142 ft | 13 kts | 98° |
| 2026-05-05 14:00 | 51.29239 | 6.78217 | 138 ft | 7 kts | 143° |
| 2026-05-05 14:00 | 51.29199 | 6.78206 | 137 ft | 7 kts | 223° |
| 2026-05-05 14:01 | 51.29148 | 6.78153 | 135 ft | 10 kts | 213° |
| 2026-05-05 14:01 | 51.29104 | 6.78069 | 132 ft | 12 kts | 232° |
| 2026-05-05 14:01 | 51.29047 | 6.77947 | 128 ft | 15 kts | 234° |
| 2026-05-05 14:01 | 51.28993 | 6.77833 | 127 ft | 13 kts | 232° |
| 2026-05-05 14:02 | 51.28935 | 6.77713 | 125 ft | 14 kts | 233° |
| 2026-05-05 14:02 | 51.28876 | 6.77589 | 127 ft | 14 kts | 233° |
| 2026-05-05 14:02 | 51.28817 | 6.77463 | 128 ft | 14 kts | 233° |
| 2026-05-05 14:02 | 51.28754 | 6.77332 | 129 ft | 16 kts | 232° |
| 2026-05-05 14:03 | 51.28685 | 6.77189 | 128 ft | 16 kts | 232° |
| 2026-05-05 14:03 | 51.28621 | 6.77056 | 125 ft | 15 kts | 234° |
| 2026-05-05 14:03 | 51.28563 | 6.76931 | 126 ft | 13 kts | 233° |
| 2026-05-05 14:03 | 51.28510 | 6.76819 | 124 ft | 11 kts | 233° |
| 2026-05-05 14:04 | 51.28458 | 6.76779 | 124 ft | 8 kts | 172° |
| 2026-05-05 14:04 | 51.28410 | 6.76821 | 123 ft | 7 kts | 143° |
| 2026-05-05 14:04 | 51.28369 | 6.76864 | 127 ft | 8 kts | 159° |
| 2026-05-05 14:04 | 51.28308 | 6.76861 | 129 ft | 9 kts | 186° |
| 2026-05-05 14:05 | 51.28257 | 6.76853 | 130 ft | 7 kts | 186° |
| 2026-05-05 14:05 | 51.28197 | 6.76842 | 130 ft | 10 kts | 187° |
| 2026-05-05 14:05 | 51.28150 | 6.76817 | 126 ft | 5 kts | 234° |
| 2026-05-05 14:05 | 51.28151 | 6.76787 | 129 ft | 2 kts | 274° |
| 2026-05-05 14:06 | 51.28153 | 6.76764 | 129 ft | 2 kts | 275° |
| 2026-05-05 14:06 | 51.28154 | 6.76743 | 129 ft | 1 kts | 276° |
| 2026-05-05 14:06 | 51.28155 | 6.76735 | 130 ft | 1 kts | 276° |
| 2026-05-05 14:06 | 51.28155 | 6.76734 | 130 ft | 0 kts | 276° |